Time;durP1;ratioP1;P1;durP2;ratioP2;P2;SDS_P1;SDS_P2;PMS_P1;PMS_P2;Temp;Humidity;BMP_temperature;BMP_pressure;BME280_temperature;BME280_humidity;BME280_pressure;Samples;Min_cycle;Max_cycle;Signal;HPM_P1;HPM_P2
2022/03/01 13:50:44;;;;;;;5.50;4.97;;;14.50;68.10;;;;;;2293433;62;30232;-76
2022/03/01 13:53:19;;;;;;;6.03;4.70;;;14.50;67.80;;;;;;2284601;62;30601;-77
2022/03/01 13:55:47;;;;;;;4.88;4.38;;;14.50;69.10;;;;;;2298719;62;30019;-79
2022/03/01 13:58:20;;;;;;;5.50;4.50;;;14.50;70.00;;;;;;2284484;62;30287;-77
2022/03/01 14:00:48;;;;;;;5.30;4.45;;;14.50;70.60;;;;;;2285252;62;30180;-76
2022/03/01 14:03:18;;;;;;;5.55;4.40;;;14.60;71.00;;;;;;2291935;62;30164;-76
2022/03/01 14:05:57;;;;;;;4.45;4.05;;;14.70;71.30;;;;;;2291840;62;30274;-77
2022/03/01 14:08:24;;;;;;;4.28;3.88;;;14.70;71.00;;;;;;2285220;62;30167;-77
2022/03/01 14:11:00;;;;;;;4.03;3.65;;;14.80;71.60;;;;;;2292236;62;30381;-77
2022/03/01 14:13:28;;;;;;;4.30;3.85;;;14.90;71.60;;;;;;2291603;62;30019;-77
2022/03/01 14:16:18;;;;;;;4.43;4.03;;;14.90;71.60;;;;;;2299606;62;30318;-77
2022/03/01 14:18:49;;;;;;;3.83;3.53;;;15.00;70.60;;;;;;2299322;62;30846;-76
2022/03/01 14:21:16;;;;;;;4.57;4.18;;;15.00;71.60;;;;;;2285523;62;30071;-78
2022/03/01 14:23:43;;;;;;;4.25;3.85;;;15.10;71.80;;;;;;2291848;62;30139;-76
2022/03/01 14:26:09;;;;;;;4.05;3.67;;;15.10;71.60;;;;;;2291753;62;30043;-77
2022/03/01 14:28:36;;;;;;;5.30;4.10;;;15.10;71.60;;;;;;2299342;62;30053;-76
2022/03/01 14:31:02;;;;;;;4.20;3.80;;;15.10;71.60;;;;;;2291764;62;30572;-77
2022/03/01 14:33:29;;;;;;;4.43;3.60;;;15.00;71.40;;;;;;2298870;62;30300;-76
2022/03/01 14:35:55;;;;;;;4.22;3.92;;;15.00;71.40;;;;;;2295790;62;31370;-79
2022/03/01 14:38:20;;;;;;;3.95;3.35;;;15.00;71.50;;;;;;2283423;62;30357;-76
2022/03/01 14:40:46;;;;;;;3.83;3.53;;;15.00;71.30;;;;;;2290812;62;30303;-76
2022/03/01 14:43:12;;;;;;;3.88;3.58;;;15.00;71.20;;;;;;2288201;62;30074;-76
2022/03/01 14:45:38;;;;;;;4.20;3.80;;;15.00;71.20;;;;;;2285522;62;30330;-74
2022/03/01 14:48:05;;;;;;;3.88;3.53;;;15.00;71.20;;;;;;2281078;62;32844;-76
2022/03/01 14:50:34;;;;;;;4.35;3.92;;;15.00;71.10;;;;;;2277629;62;30373;-75
2022/03/01 14:53:01;;;;;;;4.10;3.70;;;15.00;71.30;;;;;;2274835;62;30192;-75
2022/03/01 14:55:28;;;;;;;4.07;3.78;;;15.00;71.20;;;;;;2282186;62;30269;-75
2022/03/01 14:57:54;;;;;;;3.83;3.53;;;15.00;71.10;;;;;;2275046;62;30261;-75
2022/03/01 15:00:20;;;;;;;4.03;3.70;;;15.00;71.10;;;;;;2280994;62;30530;-75
2022/03/01 15:02:46;;;;;;;4.20;3.80;;;14.90;71.00;;;;;;2269594;62;30070;-75
2022/03/01 15:05:13;;;;;;;5.10;3.75;;;14.90;71.10;;;;;;2277736;62;30191;-75
2022/03/01 15:07:41;;;;;;;4.05;3.72;;;14.90;71.00;;;;;;2276970;62;30954;-75
2022/03/01 15:10:11;;;;;;;3.38;3.08;;;14.90;71.00;;;;;;2270426;62;30541;-75
2022/03/01 15:12:38;;;;;;;4.25;3.85;;;14.90;71.00;;;;;;2277317;62;30232;-75
2022/03/01 15:15:08;;;;;;;8.80;4.13;;;14.90;71.00;;;;;;2275711;62;30291;-80
2022/03/01 15:17:40;;;;;;;4.28;3.88;;;14.80;70.90;;;;;;2278362;62;31513;-78
2022/03/01 15:20:06;;;;;;;4.45;4.03;;;14.90;71.00;;;;;;2276629;62;30712;-77
2022/03/01 15:22:33;;;;;;;3.65;3.35;;;14.90;70.90;;;;;;2275769;62;30352;-75
2022/03/01 15:24:58;;;;;;;4.00;3.60;;;14.90;70.80;;;;;;2275976;62;30368;-77
2022/03/01 15:27:24;;;;;;;4.10;3.70;;;14.90;70.70;;;;;;2268708;62;30799;-77
2022/03/01 15:29:50;;;;;;;5.68;3.97;;;14.90;70.70;;;;;;2275951;62;30188;-76
2022/03/01 15:32:16;;;;;;;4.40;4.00;;;14.90;70.60;;;;;;2275498;62;30659;-77
2022/03/01 15:34:42;;;;;;;4.07;3.75;;;14.90;70.50;;;;;;2278608;62;30345;-76
2022/03/01 15:37:08;;;;;;;4.85;4.35;;;14.90;70.60;;;;;;2268291;62;30244;-78
2022/03/01 15:39:35;;;;;;;4.90;4.40;;;14.90;70.70;;;;;;2279449;62;30197;-76
2022/03/01 15:42:04;;;;;;;4.72;4.25;;;14.90;70.60;;;;;;2261623;62;30124;-76
2022/03/01 15:44:31;;;;;;;4.97;4.57;;;14.90;70.70;;;;;;2275494;62;30166;-76
2022/03/01 15:46:56;;;;;;;5.97;4.88;;;14.90;70.80;;;;;;2283353;62;30752;-76
2022/03/01 15:49:23;;;;;;;5.10;4.60;;;14.90;71.00;;;;;;2276608;62;30762;-76
2022/03/01 15:51:48;;;;;;;5.47;4.97;;;14.90;70.90;;;;;;2269702;62;30421;-76
2022/03/01 15:54:15;;;;;;;5.63;5.10;;;14.80;70.90;;;;;;2283877;62;30051;-77
2022/03/01 15:56:42;;;;;;;6.35;5.43;;;14.80;70.90;;;;;;2269888;62;30154;-77
2022/03/01 15:59:08;;;;;;;5.78;5.13;;;14.80;71.10;;;;;;2284091;62;31200;-78
2022/03/01 16:01:34;;;;;;;5.53;5.00;;;14.80;70.90;;;;;;2283936;62;30242;-79
2022/03/01 16:04:00;;;;;;;5.70;5.20;;;14.80;71.20;;;;;;2283670;62;30266;-78
2022/03/01 16:06:26;;;;;;;6.32;5.43;;;14.80;71.10;;;;;;2276626;62;30842;-78
2022/03/01 16:08:52;;;;;;;5.72;5.15;;;14.80;71.00;;;;;;2283723;62;31819;-78
2022/03/01 16:11:17;;;;;;;5.70;5.20;;;14.80;71.20;;;;;;2276286;62;30161;-78
2022/03/01 16:13:43;;;;;;;5.32;4.63;;;14.80;71.20;;;;;;2283531;62;30184;-78
2022/03/01 16:16:09;;;;;;;4.82;4.43;;;14.80;71.20;;;;;;2283843;62;30214;-73
2022/03/01 16:18:36;;;;;;;5.53;5.03;;;14.80;71.20;;;;;;2275844;62;30087;-73
2022/03/01 16:21:04;;;;;;;6.80;4.72;;;14.80;71.30;;;;;;2283795;62;30222;-74
2022/03/01 16:23:31;;;;;;;5.00;4.45;;;14.80;72.30;;;;;;2283737;62;30151;-74
2022/03/01 16:25:56;;;;;;;5.43;4.38;;;14.90;73.00;;;;;;2283507;62;30087;-73
2022/03/01 16:28:22;;;;;;;4.82;4.20;;;15.00;73.10;;;;;;2283158;62;30318;-72
2022/03/01 16:30:48;;;;;;;4.40;4.00;;;15.10;72.60;;;;;;2283684;62;30893;-72
2022/03/01 16:33:14;;;;;;;4.35;3.95;;;15.10;72.30;;;;;;2283493;62;30130;-73
2022/03/01 16:35:40;;;;;;;4.13;3.72;;;15.20;72.00;;;;;;2283771;62;30203;-76
2022/03/01 16:38:06;;;;;;;3.90;3.60;;;15.20;71.70;;;;;;2275891;62;30322;-76
2022/03/01 16:40:32;;;;;;;4.05;3.63;;;15.20;71.50;;;;;;2268173;62;30358;-75
2022/03/01 16:42:58;;;;;;;3.80;3.40;;;15.30;71.20;;;;;;2268424;62;30295;-75
2022/03/01 16:45:23;;;;;;;4.10;3.70;;;15.30;71.00;;;;;;2275367;62;30076;-75
2022/03/01 16:47:49;;;;;;;4.28;3.88;;;15.30;70.70;;;;;;2278607;62;30474;-77
2022/03/01 16:50:15;;;;;;;4.03;3.63;;;15.30;70.50;;;;;;2283496;62;30273;-76
2022/03/01 16:52:41;;;;;;;4.03;3.65;;;15.40;70.40;;;;;;2275775;62;30386;-74
2022/03/01 16:55:07;;;;;;;3.88;3.47;;;15.40;70.20;;;;;;2277832;62;30859;-75
2022/03/01 16:57:35;;;;;;;4.30;3.83;;;15.40;70.10;;;;;;2283587;62;32010;-75
2022/03/01 17:00:01;;;;;;;3.97;3.58;;;15.40;70.00;;;;;;2282169;62;30142;-75
2022/03/01 17:02:27;;;;;;;4.05;3.70;;;15.40;69.90;;;;;;2274880;62;30182;-74
2022/03/01 17:04:53;;;;;;;4.20;3.80;;;15.40;69.80;;;;;;2276119;62;30884;-73
2022/03/01 17:07:18;;;;;;;4.07;3.65;;;15.40;69.70;;;;;;2283246;62;30501;-73
2022/03/01 17:09:44;;;;;;;3.90;3.40;;;15.40;69.60;;;;;;2276031;62;30238;-72
2022/03/01 17:12:10;;;;;;;3.85;3.55;;;15.40;69.60;;;;;;2283677;62;30320;-73
2022/03/01 17:14:36;;;;;;;4.43;3.75;;;15.50;69.50;;;;;;2283333;62;30243;-75
2022/03/01 17:17:02;;;;;;;3.85;3.55;;;15.40;69.40;;;;;;2276214;62;30250;-73
2022/03/01 17:19:28;;;;;;;3.88;3.58;;;15.50;69.40;;;;;;2283754;62;31156;-72
2022/03/01 17:21:54;;;;;;;3.78;3.47;;;15.40;69.40;;;;;;2283277;62;30036;-73
2022/03/01 17:24:20;;;;;;;4.93;4.00;;;15.40;69.40;;;;;;2271907;62;31089;-74
2022/03/01 17:26:46;;;;;;;5.43;3.78;;;15.30;69.50;;;;;;2280071;62;30412;-75
2022/03/01 17:29:12;;;;;;;4.00;3.70;;;15.30;69.60;;;;;;2283040;62;30345;-73
2022/03/01 17:31:37;;;;;;;4.20;3.80;;;15.30;69.70;;;;;;2283377;62;30101;-74
2022/03/01 17:34:04;;;;;;;4.18;3.88;;;15.30;69.80;;;;;;2283210;62;30168;-73
2022/03/01 17:36:30;;;;;;;4.20;3.90;;;15.30;69.70;;;;;;2283067;62;31998;-72
2022/03/01 17:38:56;;;;;;;5.10;3.97;;;15.40;69.70;;;;;;2275911;62;30345;-74
2022/03/01 17:41:22;;;;;;;5.20;4.00;;;15.40;69.60;;;;;;2283238;62;30221;-74
2022/03/01 17:43:47;;;;;;;4.45;4.05;;;15.30;69.60;;;;;;2283092;62;30736;-73
2022/03/01 17:46:13;;;;;;;4.10;3.80;;;15.30;69.60;;;;;;2282968;62;30063;-73
2022/03/01 17:48:41;;;;;;;4.32;4.00;;;15.30;69.90;;;;;;2278361;62;30764;-73
2022/03/01 17:51:07;;;;;;;4.32;3.80;;;15.30;69.90;;;;;;2274896;62;30380;-73
2022/03/01 17:53:33;;;;;;;4.22;3.75;;;15.30;70.00;;;;;;2275070;62;30438;-75
2022/03/01 17:55:59;;;;;;;5.18;3.70;;;15.30;70.00;;;;;;2274885;62;30167;-74
2022/03/01 17:58:26;;;;;;;3.75;3.40;;;15.30;70.00;;;;;;2274760;62;30218;-74
2022/03/01 18:00:54;;;;;;;4.50;4.10;;;15.30;70.70;;;;;;2274683;62;30294;-72
2022/03/01 18:03:20;;;;;;;3.88;3.58;;;15.30;69.80;;;;;;2267370;62;30149;-73
2022/03/01 18:05:46;;;;;;;5.20;4.10;;;15.30;69.70;;;;;;2274752;62;30498;-73
2022/03/01 18:08:12;;;;;;;4.50;4.10;;;15.30;69.70;;;;;;2274745;62;30345;-72
2022/03/01 18:10:38;;;;;;;5.15;4.20;;;15.30;69.80;;;;;;2274636;62;30509;-73
2022/03/01 18:13:04;;;;;;;6.47;4.30;;;15.20;69.70;;;;;;2269068;62;30766;-73
2022/03/01 18:15:30;;;;;;;5.72;5.18;;;15.20;70.00;;;;;;2274922;62;30338;-73
2022/03/01 18:17:56;;;;;;;5.10;4.60;;;15.20;70.00;;;;;;2274607;62;30222;-73
2022/03/01 18:20:22;;;;;;;5.30;4.88;;;15.20;70.10;;;;;;2269321;62;30230;-72
2022/03/01 18:22:48;;;;;;;5.75;4.95;;;15.20;70.30;;;;;;2274946;62;30292;-74
2022/03/01 18:25:14;;;;;;;6.00;5.45;;;15.10;70.30;;;;;;2267325;62;30870;-74
2022/03/01 18:27:40;;;;;;;5.65;4.78;;;15.10;70.50;;;;;;2274756;62;30083;-74
2022/03/01 18:30:08;;;;;;;8.13;5.68;;;15.10;70.60;;;;;;2272510;62;30326;-74
2022/03/01 18:32:34;;;;;;;7.43;6.47;;;15.10;70.80;;;;;;2270262;62;31064;-74
2022/03/01 18:35:00;;;;;;;8.27;6.32;;;15.10;71.00;;;;;;2274734;62;30244;-72
2022/03/01 18:37:26;;;;;;;7.88;6.32;;;15.10;71.60;;;;;;2276053;62;30039;-72
2022/03/01 18:39:52;;;;;;;9.68;6.97;;;15.00;70.80;;;;;;2275925;62;30213;-72
2022/03/01 18:42:17;;;;;;;11.82;7.90;;;15.00;71.10;;;;;;2276258;62;30255;-72
2022/03/01 18:44:43;;;;;;;8.55;6.93;;;15.00;71.30;;;;;;2275692;62;30471;-71
2022/03/01 18:47:10;;;;;;;8.30;7.38;;;15.00;71.60;;;;;;2276141;62;30297;-74
2022/03/01 18:49:36;;;;;;;7.82;6.53;;;15.00;71.70;;;;;;2269737;62;30373;-76
2022/03/01 18:52:04;;;;;;;11.00;7.47;;;15.00;72.40;;;;;;2277237;62;30219;-76
2022/03/01 18:54:30;;;;;;;25.13;7.05;;;15.00;71.80;;;;;;2276677;62;30855;-73
2022/03/01 18:56:56;;;;;;;10.05;6.38;;;15.10;72.30;;;;;;2269680;62;30318;-74
2022/03/01 18:59:23;;;;;;;6.43;5.80;;;15.10;72.30;;;;;;2269948;62;30247;-74
2022/03/01 19:01:49;;;;;;;6.32;5.72;;;15.30;72.50;;;;;;2276831;62;30953;-74
2022/03/01 19:04:20;;;;;;;6.15;5.55;;;15.40;72.40;;;;;;2270154;62;30491;-72
2022/03/01 19:06:49;;;;;;;6.00;5.32;;;15.50;72.30;;;;;;2277030;62;30120;-72
2022/03/01 19:09:15;;;;;;;5.13;4.65;;;15.70;72.10;;;;;;2269818;62;30144;-72
2022/03/01 19:11:41;;;;;;;4.97;4.50;;;15.80;72.00;;;;;;2277062;62;31288;-73
2022/03/01 19:14:08;;;;;;;5.45;4.93;;;15.80;71.80;;;;;;2269300;62;30924;-71
2022/03/01 19:16:35;;;;;;;6.47;4.63;;;15.90;71.60;;;;;;2277145;62;30218;-71
2022/03/01 19:19:01;;;;;;;4.68;4.25;;;15.90;71.40;;;;;;2277035;62;30395;-72
2022/03/01 19:21:27;;;;;;;5.10;4.18;;;16.00;71.30;;;;;;2276817;62;30037;-71
2022/03/01 19:23:53;;;;;;;4.85;4.32;;;16.00;71.10;;;;;;2269680;62;30378;-71
2022/03/01 19:26:19;;;;;;;4.65;4.20;;;16.00;71.00;;;;;;2276986;62;30378;-71
2022/03/01 19:28:46;;;;;;;5.28;3.60;;;16.10;70.90;;;;;;2269408;62;30184;-70
2022/03/01 19:31:12;;;;;;;4.25;3.85;;;16.10;70.80;;;;;;2277069;62;31909;-73
2022/03/01 19:33:38;;;;;;;4.60;4.20;;;16.10;70.70;;;;;;2269708;62;30238;-74
2022/03/01 19:36:04;;;;;;;4.03;3.72;;;16.10;70.60;;;;;;2276782;62;30141;-74
2022/03/01 19:38:31;;;;;;;4.30;3.88;;;16.10;70.40;;;;;;2269711;62;30083;-74
2022/03/01 19:40:57;;;;;;;4.28;3.92;;;16.10;70.30;;;;;;2276896;62;30113;-75
2022/03/01 19:43:23;;;;;;;4.20;3.83;;;16.10;70.40;;;;;;2271909;62;30191;-73
2022/03/01 19:45:50;;;;;;;4.72;3.80;;;16.10;70.30;;;;;;2285068;62;30155;-72
2022/03/01 19:48:17;;;;;;;4.38;3.47;;;16.10;70.30;;;;;;2276932;62;30483;-73
2022/03/01 19:50:43;;;;;;;4.82;3.80;;;16.20;70.30;;;;;;2280191;62;30296;-73
2022/03/01 19:53:09;;;;;;;7.38;3.88;;;16.20;70.30;;;;;;2284683;62;30534;-72
2022/03/01 19:55:35;;;;;;;7.00;4.10;;;16.20;70.40;;;;;;2285065;62;30190;-72
2022/03/01 19:58:01;;;;;;;8.73;4.30;;;16.20;70.40;;;;;;2277224;62;30300;-72
2022/03/01 20:00:29;;;;;;;4.65;4.20;;;16.20;70.40;;;;;;2285051;62;32120;-72
2022/03/01 20:02:58;;;;;;;4.93;3.90;;;16.20;70.50;;;;;;2284722;62;30829;-73
2022/03/01 20:05:30;;;;;;;7.90;3.60;;;16.20;70.40;;;;;;2285162;62;30228;-71
2022/03/01 20:07:56;;;;;;;4.55;3.55;;;16.20;70.50;;;;;;2277775;62;30045;-71
2022/03/01 20:10:22;;;;;;;5.43;4.40;;;16.20;70.50;;;;;;2284616;62;30962;-74
2022/03/01 20:12:48;;;;;;;4.43;3.85;;;16.20;70.90;;;;;;2277298;62;32356;-73
2022/03/01 20:15:15;;;;;;;4.57;4.15;;;16.30;70.80;;;;;;2281472;62;30208;-73
2022/03/01 20:17:41;;;;;;;4.28;3.22;;;16.30;70.70;;;;;;2276526;62;30440;-74
2022/03/01 20:20:07;;;;;;;5.05;3.67;;;16.40;70.70;;;;;;2284240;62;31078;-74
2022/03/01 20:22:34;;;;;;;4.20;3.40;;;16.40;70.60;;;;;;2284424;62;30253;-74
2022/03/01 20:25:00;;;;;;;3.90;3.60;;;16.40;70.50;;;;;;2284019;62;30267;-74
2022/03/01 20:27:26;;;;;;;3.75;3.40;;;16.50;70.50;;;;;;2284401;62;30147;-74
2022/03/01 20:29:51;;;;;;;3.67;3.38;;;16.50;70.40;;;;;;2284299;62;30242;-74
2022/03/01 20:32:17;;;;;;;3.70;3.33;;;16.50;70.30;;;;;;2282419;62;30203;-74
2022/03/01 20:34:43;;;;;;;3.85;3.55;;;16.50;70.20;;;;;;2275107;62;30243;-74
2022/03/01 20:37:09;;;;;;;3.53;3.22;;;16.50;70.10;;;;;;2283781;62;30773;-74
2022/03/01 20:39:35;;;;;;;3.75;3.40;;;16.60;70.00;;;;;;2284044;62;30116;-75
2022/03/01 20:42:01;;;;;;;3.92;3.55;;;16.60;69.90;;;;;;2276926;62;30191;-74
2022/03/01 20:44:27;;;;;;;4.05;3.33;;;16.60;69.80;;;;;;2276774;62;30167;-74
2022/03/01 20:46:56;;;;;;;4.03;3.72;;;16.60;69.80;;;;;;2276615;62;31349;-74
2022/03/01 20:49:25;;;;;;;4.30;3.88;;;16.60;69.70;;;;;;2276884;62;30131;-74
2022/03/01 20:51:51;;;;;;;3.60;3.28;;;16.60;69.60;;;;;;2284256;62;30493;-75
2022/03/01 20:54:18;;;;;;;4.28;3.53;;;16.70;69.60;;;;;;2276257;62;30373;-75
2022/03/01 20:56:43;;;;;;;3.35;3.08;;;16.70;69.60;;;;;;2284894;62;30910;-77
2022/03/01 20:59:11;;;;;;;4.10;3.35;;;16.70;69.50;;;;;;2284056;62;30389;-76
2022/03/01 21:01:38;;;;;;;3.25;3.05;;;16.60;69.40;;;;;;2277354;62;30224;-75
2022/03/01 21:04:04;;;;;;;3.38;3.17;;;16.70;69.40;;;;;;2284742;62;30251;-79
2022/03/01 21:06:30;;;;;;;3.50;3.20;;;16.70;69.40;;;;;;2277209;62;30226;-77
2022/03/01 21:08:56;;;;;;;3.95;3.55;;;16.70;69.30;;;;;;2279595;62;30402;-71
2022/03/01 21:11:25;;;;;;;4.30;3.88;;;16.70;69.20;;;;;;2275093;62;30718;-71
2022/03/01 21:13:52;;;;;;;4.20;3.20;;;16.70;69.00;;;;;;2275120;62;30218;-71
2022/03/01 21:16:18;;;;;;;3.50;3.13;;;16.70;68.80;;;;;;2275037;62;30450;-72
2022/03/01 21:18:44;;;;;;;3.67;3.38;;;16.80;68.70;;;;;;2274657;62;32840;-72
2022/03/01 21:21:10;;;;;;;4.10;3.70;;;16.80;68.60;;;;;;2274835;62;31034;-73
2022/03/01 21:23:38;;;;;;;4.05;3.50;;;16.80;68.50;;;;;;2275271;62;30522;-72
2022/03/01 21:26:04;;;;;;;4.25;3.50;;;16.80;68.40;;;;;;2274768;62;30438;-71
2022/03/01 21:28:30;;;;;;;3.85;3.40;;;16.80;68.40;;;;;;2267310;62;30198;-71
2022/03/01 21:30:56;;;;;;;3.80;3.50;;;16.80;68.30;;;;;;2275014;62;30161;-71
2022/03/01 21:33:23;;;;;;;3.88;3.58;;;16.90;68.40;;;;;;2267739;62;30101;-71
2022/03/01 21:35:49;;;;;;;3.83;3.53;;;16.90;68.30;;;;;;2260529;62;30195;-72
2022/03/01 21:38:17;;;;;;;3.60;3.30;;;16.90;68.20;;;;;;2275024;62;31193;-72
2022/03/01 21:40:43;;;;;;;3.88;3.53;;;16.90;68.20;;;;;;2260699;62;30320;-71
2022/03/01 21:43:09;;;;;;;3.70;3.40;;;16.90;68.20;;;;;;2267320;62;30230;-73
2022/03/01 21:45:35;;;;;;;4.30;3.83;;;16.90;68.10;;;;;;2271030;62;30196;-73
2022/03/01 21:48:01;;;;;;;4.50;3.30;;;16.90;68.10;;;;;;2275572;62;30205;-72
2022/03/01 21:50:27;;;;;;;4.13;3.58;;;16.90;68.10;;;;;;2275187;62;30214;-73
2022/03/01 21:52:53;;;;;;;4.22;3.83;;;16.90;68.10;;;;;;2275671;62;30185;-72
2022/03/01 21:55:19;;;;;;;3.97;3.67;;;16.90;68.10;;;;;;2282982;62;30334;-72
2022/03/01 21:57:45;;;;;;;4.50;3.83;;;16.90;68.10;;;;;;2268848;62;30766;-72
2022/03/01 22:00:13;;;;;;;3.80;3.47;;;16.90;68.10;;;;;;2283188;62;30140;-71
2022/03/01 22:02:41;;;;;;;4.35;3.95;;;16.90;68.10;;;;;;2275429;62;30129;-73
2022/03/01 22:05:07;;;;;;;4.18;3.78;;;16.90;68.10;;;;;;2275620;62;30124;-72
2022/03/01 22:07:33;;;;;;;4.20;3.85;;;16.90;68.00;;;;;;2275568;62;32407;-71
2022/03/01 22:10:02;;;;;;;3.90;3.60;;;16.90;68.00;;;;;;2282791;62;30368;-71
2022/03/01 22:12:28;;;;;;;4.50;4.10;;;16.90;68.00;;;;;;2284281;62;30292;-73
2022/03/01 22:14:54;;;;;;;4.30;3.88;;;16.90;68.00;;;;;;2276989;62;31051;-71
2022/03/01 22:17:20;;;;;;;4.38;4.00;;;16.90;68.00;;;;;;2284002;62;31445;-71
2022/03/01 22:19:46;;;;;;;3.95;3.55;;;16.90;67.90;;;;;;2284111;62;30816;-71
2022/03/01 22:22:11;;;;;;;3.85;3.55;;;16.90;68.00;;;;;;2282846;62;30998;-72
2022/03/01 22:24:37;;;;;;;4.30;3.90;;;16.90;68.00;;;;;;2276004;62;30105;-73
2022/03/01 22:27:04;;;;;;;4.43;4.00;;;16.90;68.00;;;;;;2276161;62;30443;-73
2022/03/01 22:29:30;;;;;;;4.22;3.80;;;16.90;68.00;;;;;;2268832;62;30582;-72
2022/03/01 22:31:56;;;;;;;4.20;3.78;;;16.90;68.00;;;;;;2268639;62;30371;-72
2022/03/01 22:34:22;;;;;;;3.60;3.30;;;16.90;68.00;;;;;;2276222;62;30449;-73
2022/03/01 22:36:48;;;;;;;3.38;3.13;;;16.90;68.00;;;;;;2275916;62;31096;-70
2022/03/01 22:39:14;;;;;;;4.78;4.38;;;16.90;68.00;;;;;;2275817;62;30265;-72
2022/03/01 22:41:40;;;;;;;4.25;3.88;;;16.90;68.20;;;;;;2276016;62;30469;-72
2022/03/01 22:44:07;;;;;;;4.60;4.07;;;16.90;68.00;;;;;;2271294;62;30154;-72
2022/03/01 22:46:32;;;;;;;5.47;4.15;;;16.90;68.00;;;;;;2275409;62;30197;-73
2022/03/01 22:48:58;;;;;;;4.50;4.10;;;16.90;67.90;;;;;;2275795;62;30829;-73
2022/03/01 22:51:24;;;;;;;4.07;3.70;;;16.90;67.90;;;;;;2275943;62;30258;-72
2022/03/01 22:53:50;;;;;;;4.13;3.83;;;16.90;67.90;;;;;;2275883;62;30746;-70
2022/03/01 22:56:17;;;;;;;5.07;4.05;;;16.90;67.90;;;;;;2276040;62;30348;-72
2022/03/01 22:58:42;;;;;;;4.93;4.30;;;16.90;67.80;;;;;;2275186;62;30416;-74
2022/03/01 23:01:16;;;;;;;4.35;3.95;;;16.90;68.00;;;;;;2275378;62;30265;-73
2022/03/01 23:03:44;;;;;;;4.55;4.15;;;16.90;67.90;;;;;;2275781;62;30357;-73
2022/03/01 23:06:09;;;;;;;4.15;3.83;;;16.90;68.00;;;;;;2275677;62;30162;-72
2022/03/01 23:08:35;;;;;;;4.72;4.32;;;16.90;68.00;;;;;;2275809;62;30520;-73
2022/03/01 23:11:02;;;;;;;4.38;3.90;;;16.90;68.00;;;;;;2285740;62;30393;-74
2022/03/01 23:13:27;;;;;;;4.30;3.97;;;16.90;68.00;;;;;;2292083;62;30014;-74
2022/03/01 23:15:53;;;;;;;9.52;4.63;;;16.90;68.00;;;;;;2292277;62;30803;-72
2022/03/01 23:18:19;;;;;;;5.32;4.47;;;16.80;67.90;;;;;;2292397;62;32034;-73
2022/03/01 23:20:45;;;;;;;4.97;4.05;;;16.80;67.90;;;;;;2292018;62;30414;-74
2022/03/01 23:23:11;;;;;;;4.90;4.50;;;16.70;67.80;;;;;;2292131;61;30031;-74
2022/03/01 23:25:37;;;;;;;4.53;4.13;;;16.70;68.00;;;;;;2292272;62;30079;-71
2022/03/01 23:28:03;;;;;;;4.82;4.32;;;16.60;68.00;;;;;;2293382;62;30168;-73
2022/03/01 23:30:29;;;;;;;5.32;4.82;;;16.60;67.90;;;;;;2293579;62;30243;-73
